createdAt,value
2018-04-07T00:00:14.295Z,10.68
2018-04-07T00:01:14.519Z,10.71
2018-04-07T00:02:14.499Z,10.79
2018-04-07T00:03:14.468Z,10.64
2018-04-07T00:04:14.200Z,10.72
2018-04-07T00:05:14.174Z,10.68
2018-04-07T00:06:14.398Z,10.57
2018-04-07T00:07:14.122Z,10.63
2018-04-07T00:08:14.355Z,10.63
2018-04-07T00:09:14.074Z,10.59
2018-04-07T00:10:14.051Z,10.54
2018-04-07T00:11:14.028Z,10.63
2018-04-07T00:12:14.249Z,10.48
2018-04-07T00:13:13.977Z,10.46
2018-04-07T00:14:14.205Z,10.41
2018-04-07T00:15:14.175Z,10.51
2018-04-07T00:16:14.157Z,10.48
2018-04-07T00:17:13.881Z,10.49
2018-04-07T00:18:14.103Z,10.49
2018-04-07T00:19:13.832Z,10.61
2018-04-07T00:20:13.806Z,10.53
2018-04-07T00:21:13.781Z,10.54
2018-04-07T00:22:13.754Z,10.59
2018-04-07T00:23:13.978Z,10.59
2018-04-07T00:24:13.709Z,10.56
2018-04-07T00:25:13.930Z,10.54
2018-04-07T00:26:13.654Z,10.51
2018-04-07T00:27:13.889Z,10.59
2018-04-07T00:28:13.855Z,10.59
2018-04-07T00:29:13.832Z,10.57
2018-04-07T00:30:13.562Z,10.56
2018-04-07T00:31:13.787Z,10.54
2018-04-07T00:32:13.754Z,10.57
2018-04-07T00:33:13.483Z,10.59
2018-04-07T00:34:13.712Z,10.56
2018-04-07T00:35:13.682Z,10.61
2018-04-07T00:36:13.659Z,10.56
2018-04-07T00:37:13.386Z,10.54
2018-04-07T00:38:13.364Z,10.56
2018-04-07T00:39:13.579Z,10.44
2018-04-07T00:40:13.560Z,10.4
2018-04-07T00:41:13.544Z,10.37
2018-04-07T00:42:13.262Z,10.41
2018-04-07T00:43:13.482Z,10.31
2018-04-07T00:44:13.467Z,10.22
2018-04-07T00:45:13.438Z,10.26
2018-04-07T00:46:13.413Z,10.3
2018-04-07T00:47:13.389Z,10.2
2018-04-07T00:48:13.113Z,10.22
2018-04-07T00:49:13.090Z,10.17
2018-04-07T00:50:13.313Z,10.12
2018-04-07T00:51:13.289Z,10.2
2018-04-07T00:52:13.260Z,10.22
2018-04-07T00:53:13.240Z,10.05
2018-04-07T00:54:13.213Z,10.22
2018-04-07T00:55:13.183Z,10.3
2018-04-07T00:56:13.165Z,10.3
2018-04-07T00:57:13.138Z,10.26
2018-04-07T00:58:13.119Z,10.3
2018-04-07T00:59:13.087Z,10.19
2018-04-07T01:00:13.066Z,10.16
2018-04-07T01:01:12.795Z,10.23
2018-04-07T01:02:13.011Z,10.25
2018-04-07T01:03:12.737Z,10.19
2018-04-07T01:04:12.966Z,10.3
2018-04-07T01:05:12.940Z,10.1
2018-04-07T01:06:12.914Z,10.16
2018-04-07T01:07:12.640Z,10.19
2018-04-07T01:08:12.615Z,10.22
2018-04-07T01:09:12.840Z,10.3
2018-04-07T01:10:12.818Z,10.34
2018-04-07T01:11:12.788Z,10.31
2018-04-07T01:12:12.515Z,10.35
2018-04-07T01:13:12.739Z,10.4
2018-04-07T01:14:12.711Z,10.46
2018-04-07T01:15:12.438Z,10.38
2018-04-07T01:16:12.416Z,10.46
2018-04-07T01:17:12.639Z,10.44
2018-04-07T01:18:12.619Z,10.4
2018-04-07T01:19:12.341Z,10.41
2018-04-07T01:20:12.316Z,10.44
2018-04-07T01:21:12.545Z,10.44
2018-04-07T01:22:12.268Z,10.6
2018-04-07T01:23:12.491Z,10.49
2018-04-07T01:24:12.218Z,10.4
2018-04-07T01:25:12.198Z,10.4
2018-04-07T01:26:12.421Z,10.37
2018-04-07T01:27:12.393Z,10.42
2018-04-07T01:28:12.366Z,10.37
2018-04-07T01:29:12.098Z,10.46
2018-04-07T01:30:12.317Z,10.4
2018-04-07T01:31:12.307Z,10.34
2018-04-07T01:32:12.277Z,10.35
2018-04-07T01:33:12.248Z,10.33
2018-04-07T01:34:12.216Z,10.42
2018-04-07T01:35:11.945Z,10.37
2018-04-07T01:36:12.169Z,10.35
2018-04-07T01:37:12.155Z,10.3
2018-04-07T01:38:12.117Z,10.31
2018-04-07T01:39:11.845Z,10.2
2018-04-07T01:40:12.070Z,10.31
2018-04-07T01:41:12.046Z,10.17
2018-04-07T01:42:11.774Z,10.37
2018-04-07T01:43:12.004Z,10.28
2018-04-07T01:44:11.979Z,10.23
2018-04-07T01:45:11.953Z,10.34
2018-04-07T01:46:11.967Z,10.3
2018-04-07T01:47:11.894Z,10.34
2018-04-07T01:48:11.877Z,10.33
2018-04-07T01:49:11.847Z,10.22
2018-04-07T01:50:11.819Z,10.33
2018-04-07T01:51:11.793Z,10.19
2018-04-07T01:52:11.521Z,10.23
2018-04-07T01:53:11.748Z,10.33
2018-04-07T01:54:11.724Z,10.33
2018-04-07T01:55:11.706Z,10.28
2018-04-07T01:56:11.672Z,10.28
2018-04-07T01:57:11.401Z,10.3
2018-04-07T01:58:11.373Z,10.19
2018-04-07T01:59:11.350Z,10.2
2018-04-07T02:00:11.576Z,10.22
2018-04-07T02:01:11.298Z,10.19
2018-04-07T02:02:11.522Z,10.25
2018-04-07T02:03:11.496Z,10.2
2018-04-07T02:04:11.223Z,10.19
2018-04-07T02:05:11.448Z,10.19
2018-04-07T02:06:11.423Z,10.22
2018-04-07T02:07:11.150Z,10.17
2018-04-07T02:08:11.375Z,10.22
2018-04-07T02:09:11.346Z,10.15
2018-04-07T02:10:11.322Z,10.19
2018-04-07T02:11:11.297Z,10.09
2018-04-07T02:12:11.272Z,9.98
2018-04-07T02:13:10.999Z,10.12
2018-04-07T02:14:11.225Z,9.92
2018-04-07T02:15:11.195Z,9.87
2018-04-07T02:16:11.174Z,9.91
2018-04-07T02:17:11.152Z,9.89
2018-04-07T02:18:11.117Z,9.97
2018-04-07T02:19:11.097Z,9.84
2018-04-07T02:20:11.072Z,9.86
2018-04-07T02:21:11.050Z,9.95
2018-04-07T02:22:10.770Z,9.89
2018-04-07T02:23:10.750Z,9.79
2018-04-07T02:24:10.970Z,9.91
2018-04-07T02:25:10.951Z,9.79
2018-04-07T02:26:10.928Z,9.8
2018-04-07T02:27:10.400Z,9.74
2018-04-07T02:28:10.867Z,9.69
2018-04-07T02:29:10.596Z,9.73
2018-04-07T02:30:10.586Z,9.79
2018-04-07T02:31:10.299Z,9.64
2018-04-07T02:32:10.278Z,9.74
2018-04-07T02:33:10.744Z,9.69
2018-04-07T02:34:10.475Z,9.68
2018-04-07T02:35:10.450Z,9.73
2018-04-07T02:36:10.678Z,9.69
2018-04-07T02:37:10.644Z,9.69
2018-04-07T02:38:10.621Z,9.74
2018-04-07T02:39:10.603Z,9.77
2018-04-07T02:40:10.072Z,9.76
2018-04-07T02:41:10.396Z,9.69
2018-04-07T02:42:10.271Z,9.76
2018-04-07T02:43:10.553Z,9.76
2018-04-07T02:44:10.490Z,9.73
2018-04-07T02:45:10.196Z,9.68
2018-04-07T02:46:10.430Z,9.8
2018-04-07T02:47:10.153Z,9.79
2018-04-07T02:48:10.371Z,9.77
2018-04-07T02:49:10.350Z,9.86
2018-04-07T02:50:10.068Z,9.83
2018-04-07T02:51:10.044Z,9.77
2018-04-07T02:52:10.275Z,9.82
2018-04-07T02:53:10.249Z,9.82
2018-04-07T02:54:09.718Z,9.77
2018-04-07T02:55:10.191Z,9.82
2018-04-07T02:56:10.179Z,9.84
2018-04-07T02:57:09.896Z,9.8
2018-04-07T02:58:09.869Z,9.74
2018-04-07T02:59:10.095Z,9.69
2018-04-07T03:00:10.083Z,9.73
2018-04-07T03:01:09.794Z,9.66
2018-04-07T03:02:10.019Z,9.69
2018-04-07T03:03:09.998Z,9.68
2018-04-07T03:04:09.974Z,9.61
2018-04-07T03:05:09.700Z,9.61
2018-04-07T03:06:09.665Z,9.59
2018-04-07T03:07:09.647Z,9.61
2018-04-07T03:08:09.620Z,9.56
2018-04-07T03:09:09.844Z,9.61
2018-04-07T03:10:09.810Z,9.61
2018-04-07T03:11:09.827Z,9.58
2018-04-07T03:12:09.767Z,9.43
2018-04-07T03:13:09.485Z,9.44
2018-04-07T03:14:09.211Z,9.46
2018-04-07T03:15:09.684Z,9.31
2018-04-07T03:16:09.409Z,9.37
2018-04-07T03:17:09.385Z,9.28
2018-04-07T03:18:09.360Z,9.18
2018-04-07T03:19:09.582Z,9.31
2018-04-07T03:20:09.309Z,9.28
2018-04-07T03:21:09.281Z,9.16
2018-04-07T03:22:09.511Z,9.22
2018-04-07T03:23:09.232Z,9.19
2018-04-07T03:24:09.458Z,9.18
2018-04-07T03:25:09.433Z,9.23
2018-04-07T03:26:09.408Z,9.26
2018-04-07T03:27:08.883Z,9.16
2018-04-07T03:28:09.353Z,9.18
2018-04-07T03:29:09.326Z,9.23
2018-04-07T03:30:09.310Z,9.22
2018-04-07T03:31:08.782Z,9.23
2018-04-07T03:32:09.252Z,9.28
2018-04-07T03:33:09.224Z,9.19
2018-04-07T03:34:09.201Z,9.18
2018-04-07T03:35:08.928Z,9.36
2018-04-07T03:36:08.901Z,9.37
2018-04-07T03:37:09.124Z,9.34
2018-04-07T03:38:09.096Z,9.37
2018-04-07T03:39:08.572Z,9.37
2018-04-07T03:40:08.798Z,9.36
2018-04-07T03:41:08.774Z,9.34
2018-04-07T03:42:08.750Z,9.39
2018-04-07T03:43:08.970Z,9.31
2018-04-07T03:44:08.958Z,9.28
2018-04-07T03:45:08.917Z,9.47
2018-04-07T03:46:08.395Z,9.48
2018-04-07T03:47:08.620Z,9.51
2018-04-07T03:48:08.841Z,9.44
2018-04-07T03:49:08.810Z,9.44
2018-04-07T03:50:08.290Z,9.46
2018-04-07T03:51:08.772Z,9.46
2018-04-07T03:52:08.243Z,9.54
2018-04-07T03:53:08.463Z,9.54
2018-04-07T03:54:08.440Z,9.48
2018-04-07T03:55:08.664Z,9.51
2018-04-07T03:56:08.632Z,9.51
2018-04-07T03:57:08.614Z,9.5
2018-04-07T03:58:08.584Z,9.46
2018-04-07T03:59:08.565Z,9.47
2018-04-07T04:00:08.307Z,9.5
2018-04-07T04:01:08.260Z,9.47
2018-04-07T04:02:08.482Z,9.48
2018-04-07T04:03:08.457Z,9.47
2018-04-07T04:04:08.434Z,9.46
2018-04-07T04:05:08.164Z,9.48
2018-04-07T04:06:07.882Z,9.62
2018-04-07T04:07:08.357Z,9.55
2018-04-07T04:08:08.080Z,9.61
2018-04-07T04:09:08.312Z,9.47
2018-04-07T04:10:08.033Z,9.56
2018-04-07T04:11:08.006Z,9.44
2018-04-07T04:12:07.732Z,9.46
2018-04-07T04:13:08.203Z,9.5
2018-04-07T04:14:07.931Z,9.56
2018-04-07T04:15:07.908Z,9.48
2018-04-07T04:16:07.877Z,9.43
2018-04-07T04:17:08.099Z,9.51
2018-04-07T04:18:08.076Z,9.47
2018-04-07T04:19:08.048Z,9.51
2018-04-07T04:20:07.781Z,9.44
2018-04-07T04:21:08.000Z,9.51
2018-04-07T04:22:07.980Z,9.36
2018-04-07T04:23:07.703Z,9.32
2018-04-07T04:24:07.674Z,9.4
2018-04-07T04:25:07.906Z,9.37
2018-04-07T04:26:07.627Z,9.41
2018-04-07T04:27:07.849Z,9.29
2018-04-07T04:28:07.847Z,9.39
2018-04-07T04:29:07.299Z,9.39
2018-04-07T04:30:07.771Z,9.37
2018-04-07T04:31:07.743Z,9.28
2018-04-07T04:32:07.725Z,9.22
2018-04-07T04:33:07.700Z,9.19
2018-04-07T04:34:07.668Z,9.22
2018-04-07T04:35:07.650Z,9.18
2018-04-07T04:36:07.624Z,9.21
2018-04-07T04:37:07.343Z,9.16
2018-04-07T04:38:07.570Z,9.13
2018-04-07T04:39:07.541Z,9.14
2018-04-07T04:40:07.266Z,9.1
2018-04-07T04:41:06.994Z,9.14
2018-04-07T04:42:07.213Z,9.22
2018-04-07T04:43:06.941Z,9.11
2018-04-07T04:44:07.412Z,9.11
2018-04-07T04:45:07.138Z,9.11
2018-04-07T04:46:07.359Z,9.11
2018-04-07T04:47:07.089Z,9.13
2018-04-07T04:48:07.308Z,9.13
2018-04-07T04:49:07.035Z,9.14
2018-04-07T04:50:07.014Z,9.06
2018-04-07T04:51:06.983Z,9.08
2018-04-07T04:52:06.967Z,9.11
2018-04-07T04:53:06.936Z,9.04
2018-04-07T04:54:06.905Z,9
2018-04-07T04:55:06.915Z,9.06
2018-04-07T04:56:07.108Z,9.02
2018-04-07T04:57:06.833Z,9.04
2018-04-07T04:58:06.803Z,8.97
2018-04-07T04:59:07.029Z,8.99
2018-04-07T05:00:06.757Z,8.95
2018-04-07T05:01:06.976Z,9.04
2018-04-07T05:02:06.947Z,8.97
2018-04-07T05:03:06.924Z,9.03
2018-04-07T05:04:06.650Z,9.04
2018-04-07T05:05:06.874Z,9.06
2018-04-07T05:06:06.598Z,9.06
2018-04-07T05:07:06.324Z,9
2018-04-07T05:08:06.553Z,9.03
2018-04-07T05:09:06.772Z,9.16
2018-04-07T05:10:06.503Z,9.13
2018-04-07T05:11:06.471Z,9.19
2018-04-07T05:12:06.443Z,9.23
2018-04-07T05:13:06.416Z,9.23
2018-04-07T05:14:06.655Z,9.23
2018-04-07T05:15:06.677Z,9.22
2018-04-07T05:16:06.094Z,9.28
2018-04-07T05:17:06.064Z,9.16
2018-04-07T05:18:06.362Z,9.23
2018-04-07T05:19:06.522Z,9.23
2018-04-07T05:20:06.239Z,9.23
2018-04-07T05:21:06.461Z,9.21
2018-04-07T05:22:06.188Z,9.26
2018-04-07T05:23:06.408Z,9.22
2018-04-07T05:24:06.145Z,9.36
2018-04-07T05:25:06.359Z,9.37
2018-04-07T05:26:06.337Z,9.37
2018-04-07T05:27:05.812Z,9.47
2018-04-07T05:28:06.281Z,9.48
2018-04-07T05:29:06.012Z,9.46
2018-04-07T05:30:05.985Z,9.48
2018-04-07T05:31:05.964Z,9.56
2018-04-07T05:32:06.182Z,9.48
2018-04-07T05:33:06.160Z,9.5
2018-04-07T05:34:06.141Z,9.59
2018-04-07T05:35:06.112Z,9.61
2018-04-07T05:36:05.588Z,9.62
2018-04-07T05:37:05.804Z,9.61
2018-04-07T05:38:06.043Z,9.58
2018-04-07T05:39:05.752Z,9.61
2018-04-07T05:40:05.479Z,9.66
2018-04-07T05:41:05.951Z,9.68
2018-04-07T05:42:05.928Z,9.73
2018-04-07T05:43:05.657Z,9.72
2018-04-07T05:44:05.877Z,9.74
2018-04-07T05:45:05.860Z,9.82
2018-04-07T05:46:05.828Z,9.76
2018-04-07T05:47:05.555Z,9.84
2018-04-07T05:48:05.528Z,9.82
2018-04-07T05:49:05.752Z,9.87
2018-04-07T05:50:05.732Z,9.86
2018-04-07T05:51:05.704Z,9.86
2018-04-07T05:52:05.180Z,9.87
2018-04-07T05:53:05.702Z,9.86
2018-04-07T05:54:05.627Z,9.87
2018-04-07T05:55:05.604Z,9.97
2018-04-07T05:56:05.332Z,9.98
2018-04-07T05:57:05.310Z,10.02
2018-04-07T05:58:05.532Z,9.99
2018-04-07T05:59:05.515Z,10.04
2018-04-07T06:00:05.482Z,10.04
2018-04-07T06:01:05.206Z,10.02
2018-04-07T06:02:05.185Z,10.13
2018-04-07T06:03:05.166Z,10.09
2018-04-07T06:04:05.383Z,10.13
2018-04-07T06:05:05.358Z,10.2
2018-04-07T06:06:05.338Z,10.2
2018-04-07T06:07:05.311Z,10.16
2018-04-07T06:08:05.288Z,10.33
2018-04-07T06:09:05.266Z,10.38
2018-04-07T06:10:04.992Z,10.48
2018-04-07T06:11:05.214Z,10.49
2018-04-07T06:12:05.194Z,10.63
2018-04-07T06:13:04.922Z,10.53
2018-04-07T06:14:04.895Z,10.68
2018-04-07T06:15:05.115Z,10.61
2018-04-07T06:16:05.094Z,10.72
2018-04-07T06:17:05.078Z,10.69
2018-04-07T06:18:04.548Z,10.78
2018-04-07T06:19:05.023Z,10.78
2018-04-07T06:20:05.001Z,10.9
2018-04-07T06:21:04.978Z,10.93
2018-04-07T06:22:04.953Z,11.07
2018-04-07T06:23:04.926Z,11.1
2018-04-07T06:24:04.657Z,11.12
2018-04-07T06:25:04.888Z,11.32
2018-04-07T06:26:04.869Z,11.29
2018-04-07T06:27:04.833Z,11.36
2018-04-07T06:28:04.565Z,11.43
2018-04-07T06:29:04.787Z,11.44
2018-04-07T06:30:04.518Z,11.43
2018-04-07T06:31:04.494Z,11.52
2018-04-07T06:32:04.801Z,11.59
2018-04-07T06:33:04.696Z,11.57
2018-04-07T06:34:04.419Z,11.72
2018-04-07T06:35:04.400Z,11.77
2018-04-07T06:36:04.632Z,11.83
2018-04-07T06:37:04.604Z,11.91
2018-04-07T06:38:04.591Z,11.87
2018-04-07T06:39:04.306Z,11.83
2018-04-07T06:40:04.532Z,11.99
2018-04-07T06:41:04.262Z,11.97
2018-04-07T06:42:03.988Z,12.07
2018-04-07T06:43:04.468Z,12.06
2018-04-07T06:44:04.446Z,12.07
2018-04-07T06:45:04.173Z,12.12
2018-04-07T06:46:04.397Z,12.15
2018-04-07T06:47:04.383Z,12.27
2018-04-07T06:48:04.447Z,12.17
2018-04-07T06:49:04.088Z,12.25
2018-04-07T06:50:04.422Z,12.25
2018-04-07T06:51:04.302Z,12.29
2018-04-07T06:52:04.273Z,12.36
2018-04-07T06:53:04.235Z,12.32
2018-04-07T06:54:03.965Z,12.37
2018-04-07T06:55:04.298Z,12.49
2018-04-07T06:56:04.171Z,12.55
2018-04-07T06:57:03.903Z,12.49
2018-04-07T06:58:03.877Z,12.53
2018-04-07T06:59:03.858Z,12.55
2018-04-07T07:00:03.831Z,12.61
2018-04-07T07:01:03.817Z,12.67
2018-04-07T07:02:04.045Z,12.7
2018-04-07T07:03:04.012Z,12.73
2018-04-07T07:04:03.994Z,12.85
2018-04-07T07:05:03.976Z,12.83
2018-04-07T07:06:03.452Z,12.86
2018-04-07T07:07:03.680Z,12.94
2018-04-07T07:08:03.705Z,13.04
2018-04-07T07:09:03.962Z,13.05
2018-04-07T07:10:03.869Z,13.01
2018-04-07T07:11:03.834Z,13.05
2018-04-07T07:12:03.822Z,13.16
2018-04-07T07:13:03.547Z,13.22
2018-04-07T07:14:03.773Z,13.25
2018-04-07T07:15:03.514Z,13.3
2018-04-07T07:16:03.481Z,13.37
2018-04-07T07:17:03.459Z,13.33
2018-04-07T07:18:03.441Z,13.42
2018-04-07T07:19:03.669Z,13.41
2018-04-07T07:20:03.395Z,13.49
2018-04-07T07:21:03.627Z,13.47
2018-04-07T07:22:03.395Z,13.59
2018-04-07T07:23:03.337Z,13.6
2018-04-07T07:24:03.569Z,13.7
2018-04-07T07:25:03.645Z,13.75
2018-04-07T07:26:03.519Z,13.77
2018-04-07T07:27:03.499Z,13.85
2018-04-07T07:28:03.227Z,13.87
2018-04-07T07:29:03.207Z,13.92
2018-04-07T07:30:03.186Z,13.9
2018-04-07T07:31:03.420Z,13.96
2018-04-07T07:32:03.395Z,13.99
2018-04-07T07:33:03.374Z,13.9
2018-04-07T07:34:03.357Z,14.05
2018-04-07T07:35:03.348Z,14.07
2018-04-07T07:36:03.312Z,14.08
2018-04-07T07:37:03.296Z,14.11
2018-04-07T07:38:03.277Z,14.22
2018-04-07T07:39:03.257Z,14.25
2018-04-07T07:40:03.228Z,14.23
2018-04-07T07:41:03.218Z,14.33
2018-04-07T07:42:03.369Z,14.29
2018-04-07T07:43:02.925Z,14.4
2018-04-07T07:44:03.156Z,14.48
2018-04-07T07:45:03.132Z,14.54
2018-04-07T07:46:03.157Z,14.55
2018-04-07T07:47:02.850Z,14.55
2018-04-07T07:48:02.821Z,14.58
2018-04-07T07:49:03.052Z,14.63
2018-04-07T07:50:02.787Z,14.7
2018-04-07T07:51:03.010Z,14.66
2018-04-07T07:52:02.749Z,14.72
2018-04-07T07:53:02.968Z,14.88
2018-04-07T07:54:02.949Z,14.84
2018-04-07T07:55:02.933Z,14.89
2018-04-07T07:56:02.913Z,14.89
2018-04-07T07:57:02.888Z,14.92
2018-04-07T07:58:02.871Z,14.96
2018-04-07T07:59:02.895Z,14.96
2018-04-07T08:00:02.880Z,14.91
2018-04-07T08:01:02.809Z,14.92
2018-04-07T08:02:02.799Z,15.02
2018-04-07T08:03:02.772Z,15.18
2018-04-07T08:04:03.006Z,15.03
2018-04-07T08:05:02.668Z,15.15
2018-04-07T08:06:02.461Z,15.21
2018-04-07T08:07:02.698Z,15.25
2018-04-07T08:08:02.669Z,15.29
2018-04-07T08:09:02.399Z,15.37
2018-04-07T08:10:02.380Z,15.35
2018-04-07T08:11:02.360Z,15.44
2018-04-07T08:12:02.586Z,15.44
2018-04-07T08:13:02.571Z,15.37
2018-04-07T08:14:02.552Z,15.47
2018-04-07T08:15:02.535Z,15.47
2018-04-07T08:16:02.510Z,15.58
2018-04-07T08:17:02.492Z,15.68
2018-04-07T08:18:02.470Z,15.67
2018-04-07T08:19:02.457Z,15.8
2018-04-07T08:20:02.436Z,15.82
2018-04-07T08:21:02.165Z,15.77
2018-04-07T08:22:02.397Z,15.84
2018-04-07T08:23:02.124Z,15.83
2018-04-07T08:24:02.108Z,15.97
2018-04-07T08:25:02.335Z,16.04
2018-04-07T08:26:02.319Z,16.05
2018-04-07T08:27:02.050Z,16.04
2018-04-07T08:28:02.285Z,16.05
2018-04-07T08:29:02.261Z,16.1
2018-04-07T08:30:01.743Z,16.08
2018-04-07T08:31:02.222Z,16.21
2018-04-07T08:32:02.267Z,16.23
2018-04-07T08:33:02.185Z,16.39
2018-04-07T08:34:01.913Z,16.29
2018-04-07T08:35:02.144Z,16.35
2018-04-07T08:36:02.126Z,16.43
2018-04-07T08:37:02.110Z,16.38
2018-04-07T08:38:02.088Z,16.49
2018-04-07T08:39:02.065Z,16.49
2018-04-07T08:40:02.053Z,16.64
2018-04-07T08:41:02.032Z,16.68
2018-04-07T08:42:02.014Z,16.71
2018-04-07T08:43:01.995Z,16.79
2018-04-07T08:44:01.729Z,16.78
2018-04-07T08:45:01.957Z,16.96
2018-04-07T08:46:01.937Z,16.93
2018-04-07T08:47:01.922Z,17.01
2018-04-07T08:48:01.897Z,17.08
2018-04-07T08:49:01.876Z,17.12
2018-04-07T08:50:01.868Z,17.16
2018-04-07T08:51:01.905Z,17.19
2018-04-07T08:52:01.828Z,17.22
2018-04-07T08:53:01.558Z,17.36
2018-04-07T08:54:01.551Z,17.31
2018-04-07T08:55:01.774Z,17.45
2018-04-07T08:56:01.756Z,17.46
2018-04-07T08:57:01.730Z,17.46
2018-04-07T08:58:01.467Z,17.48
2018-04-07T08:59:01.695Z,17.51
2018-04-07T09:00:01.678Z,17.6
2018-04-07T09:01:02.224Z,17.59
2018-04-07T09:02:01.642Z,17.6
2018-04-07T09:03:01.629Z,17.65
2018-04-07T09:04:01.612Z,17.78
2018-04-07T09:05:01.585Z,17.78
2018-04-07T09:06:01.324Z,17.76
2018-04-07T09:07:01.561Z,17.83
2018-04-07T09:08:01.579Z,17.95
2018-04-07T09:09:01.517Z,17.98
2018-04-07T09:10:01.497Z,17.97
2018-04-07T09:11:01.483Z,18.05
2018-04-07T09:12:01.467Z,18.19
2018-04-07T09:13:01.447Z,18.22
2018-04-07T09:14:01.181Z,18.16
2018-04-07T09:15:01.418Z,18.26
2018-04-07T09:16:01.398Z,18.28
2018-04-07T09:17:01.130Z,18.41
2018-04-07T09:18:01.109Z,18.37
2018-04-07T09:19:01.340Z,18.49
2018-04-07T09:20:01.322Z,18.49
2018-04-07T09:21:01.305Z,18.5
2018-04-07T09:22:01.295Z,18.58
2018-04-07T09:23:01.278Z,18.59
2018-04-07T09:24:01.007Z,18.58
2018-04-07T09:25:01.235Z,18.63
2018-04-07T09:26:01.229Z,18.73
2018-04-07T09:27:01.208Z,18.74
2018-04-07T09:28:01.182Z,18.77
2018-04-07T09:29:01.168Z,18.77
2018-04-07T09:30:00.900Z,18.83
2018-04-07T09:31:01.141Z,18.81
2018-04-07T09:32:01.113Z,18.88
2018-04-07T09:33:00.852Z,18.88
2018-04-07T09:34:01.086Z,19
2018-04-07T09:35:01.078Z,19.07
2018-04-07T09:36:01.060Z,19.07
2018-04-07T09:37:00.792Z,19.08
2018-04-07T09:38:01.019Z,19.15
2018-04-07T09:39:00.999Z,19.27
2018-04-07T09:40:00.985Z,19.21
2018-04-07T09:41:00.728Z,19.22
2018-04-07T09:42:01.000Z,19.3
2018-04-07T09:43:00.692Z,19.3
2018-04-07T09:44:00.922Z,19.51
2018-04-07T09:45:00.895Z,19.37
2018-04-07T09:46:00.893Z,19.41
2018-04-07T09:47:00.874Z,19.48
2018-04-07T09:48:00.853Z,19.47
2018-04-07T09:49:00.838Z,19.52
2018-04-07T09:50:00.576Z,19.54
2018-04-07T09:51:00.896Z,19.55
2018-04-07T09:52:00.789Z,19.49
2018-04-07T09:53:00.793Z,19.54
2018-04-07T09:54:00.749Z,19.49
2018-04-07T09:55:00.487Z,19.63
2018-04-07T09:56:00.468Z,19.69
2018-04-07T09:57:00.700Z,19.63
2018-04-07T09:58:00.691Z,19.77
2018-04-07T09:59:00.671Z,19.74
2018-04-07T10:00:00.648Z,19.7
2018-04-07T10:01:00.636Z,19.77
2018-04-07T10:02:00.622Z,19.84
2018-04-07T10:03:00.603Z,19.92
2018-04-07T10:04:00.590Z,20.02
2018-04-07T10:05:00.574Z,19.99
2018-04-07T10:06:00.307Z,20.06
2018-04-07T10:07:00.546Z,20.07
2018-04-07T10:08:00.525Z,20.06
2018-04-07T10:09:00.513Z,20.21
2018-04-07T10:09:59.994Z,20.25
2018-04-07T10:11:00.483Z,20.37
2018-04-07T10:12:00.461Z,20.32
2018-04-07T10:13:00.458Z,20.34
2018-04-07T10:14:00.052Z,20.41
2018-04-07T10:15:00.417Z,20.4
2018-04-07T10:16:00.396Z,20.41
2018-04-07T10:17:00.385Z,20.5
2018-04-07T10:18:00.118Z,20.56
2018-04-07T10:19:00.103Z,20.6
2018-04-07T10:20:00.337Z,20.65
2018-04-07T10:21:00.318Z,20.72
2018-04-07T10:22:00.306Z,20.67
2018-04-07T10:23:00.297Z,20.72
2018-04-07T10:24:00.028Z,20.82
2018-04-07T10:25:00.255Z,20.95
2018-04-07T10:26:00.244Z,20.88
2018-04-07T10:26:59.979Z,21
2018-04-07T10:28:00.415Z,21.11
2018-04-07T10:28:59.948Z,21.12
2018-04-07T10:30:00.197Z,21.12
2018-04-07T10:30:59.921Z,21.2
2018-04-07T10:32:00.155Z,21.21
2018-04-07T10:32:59.886Z,21.35
2018-04-07T10:33:59.872Z,21.39
2018-04-07T10:35:00.108Z,21.36
2018-04-07T10:36:00.096Z,21.45
2018-04-07T10:36:59.832Z,21.51
2018-04-07T10:38:00.071Z,21.51
2018-04-07T10:39:00.045Z,21.57
2018-04-07T10:40:00.040Z,21.64
2018-04-07T10:41:00.014Z,21.62
2018-04-07T10:42:00.009Z,21.72
2018-04-07T10:42:59.990Z,21.62
2018-04-07T10:43:59.726Z,21.73
2018-04-07T10:44:59.962Z,21.75
2018-04-07T10:45:59.942Z,21.82
2018-04-07T10:46:59.927Z,21.88
2018-04-07T10:47:59.919Z,21.92
2018-04-07T10:48:59.901Z,21.93
2018-04-07T10:49:59.930Z,22.02
2018-04-07T10:50:59.628Z,22.07
2018-04-07T10:51:59.857Z,22.06
2018-04-07T10:52:59.837Z,22.04
2018-04-07T10:53:59.828Z,22.14
2018-04-07T10:54:59.563Z,22.08
2018-04-07T10:55:59.800Z,22.13
2018-04-07T10:56:59.537Z,22.14
2018-04-07T10:57:59.779Z,22.08
2018-04-07T10:59:00.764Z,22.15
2018-04-07T10:59:59.775Z,22.17
2018-04-07T11:00:59.730Z,22.22
2018-04-07T11:01:59.716Z,22.29
2018-04-07T11:03:00.768Z,22.32
2018-04-07T11:03:59.583Z,22.39
2018-04-07T11:04:59.422Z,22.41
2018-04-07T11:05:59.659Z,22.51
2018-04-07T11:06:59.394Z,22.45
2018-04-07T11:07:59.629Z,22.45
2018-04-07T11:08:59.617Z,22.47
2018-04-07T11:09:59.603Z,22.5
2018-04-07T11:10:59.590Z,22.55
2018-04-07T11:11:59.576Z,22.65
2018-04-07T11:12:59.317Z,22.69
2018-04-07T11:13:59.298Z,22.73
2018-04-07T11:14:59.530Z,22.76
2018-04-07T11:15:59.268Z,22.85
2018-04-07T11:16:59.255Z,22.98
2018-04-07T11:17:59.493Z,22.93
2018-04-07T11:18:59.477Z,22.94
2018-04-07T11:19:59.216Z,22.96
2018-04-07T11:20:59.448Z,22.9
2018-04-07T11:21:59.438Z,22.88
2018-04-07T11:22:59.424Z,22.94
2018-04-07T11:23:59.412Z,23.03
2018-04-07T11:24:59.398Z,23
2018-04-07T11:25:59.383Z,23.09
2018-04-07T11:26:59.370Z,23.18
2018-04-07T11:27:59.355Z,23.21
2018-04-07T11:28:59.409Z,23.18
2018-04-07T11:29:59.667Z,23.15
2018-04-07T11:30:59.119Z,23.39
2018-04-07T11:31:59.275Z,23.28
2018-04-07T11:32:59.291Z,23.4
2018-04-07T11:33:59.277Z,23.46
2018-04-07T11:34:59.016Z,23.48
2018-04-07T11:35:59.251Z,23.5
2018-04-07T11:36:59.236Z,23.5
2018-04-07T11:37:58.730Z,23.54
2018-04-07T11:38:58.965Z,23.51
2018-04-07T11:39:59.199Z,23.54
2018-04-07T11:40:59.189Z,23.56
2018-04-07T11:41:59.173Z,23.61
2018-04-07T11:42:59.161Z,23.63
2018-04-07T11:43:59.142Z,23.69
2018-04-07T11:44:58.884Z,23.73
2018-04-07T11:45:59.121Z,23.73
2018-04-07T11:46:59.107Z,23.73
2018-04-07T11:47:59.107Z,23.78
2018-04-07T11:48:58.584Z,23.77
2018-04-07T11:49:58.672Z,23.78
2018-04-07T11:50:59.059Z,23.77
2018-04-07T11:51:58.795Z,23.76
2018-04-07T11:52:59.076Z,23.78
2018-04-07T11:53:59.018Z,23.92
2018-04-07T11:54:59.005Z,23.95
2018-04-07T11:55:58.998Z,23.93
2018-04-07T11:56:58.732Z,23.95
2018-04-07T11:57:58.971Z,24.02
2018-04-07T11:58:58.962Z,24.01
2018-04-07T11:59:58.698Z,23.95
2018-04-07T12:00:58.684Z,24.03
2018-04-07T12:01:58.924Z,24.01
2018-04-07T12:02:58.919Z,23.95
2018-04-07T12:03:58.893Z,23.92
2018-04-07T12:04:58.881Z,23.91
2018-04-07T12:05:58.618Z,23.91
2018-04-07T12:06:58.866Z,23.98
2018-04-07T12:07:58.841Z,24.05
2018-04-07T12:08:58.832Z,24.16
2018-04-07T12:09:58.572Z,24.1
2018-04-07T12:10:58.562Z,24.17
2018-04-07T12:11:58.792Z,24.13
2018-04-07T12:12:58.784Z,24.05
2018-04-07T12:13:58.769Z,24.05
2018-04-07T12:14:58.857Z,24.06
2018-04-07T12:15:58.853Z,24.16
2018-04-07T12:16:58.489Z,24.14
2018-04-07T12:17:58.729Z,24.26
2018-04-07T12:18:58.787Z,24.32
2018-04-07T12:19:58.698Z,24.21
2018-04-07T12:20:58.684Z,24.23
2018-04-07T12:21:58.668Z,24.17
2018-04-07T12:22:58.664Z,24.21
2018-04-07T12:23:58.153Z,24.26
2018-04-07T12:24:58.640Z,24.3
2018-04-07T12:25:58.623Z,24.36
2018-04-07T12:26:58.369Z,24.32
2018-04-07T12:27:58.359Z,24.5
2018-04-07T12:28:58.623Z,24.5
2018-04-07T12:29:58.586Z,24.47
2018-04-07T12:30:58.324Z,24.45
2018-04-07T12:31:58.561Z,24.54
2018-04-07T12:32:58.557Z,24.57
2018-04-07T12:33:58.706Z,24.54
2018-04-07T12:34:58.533Z,24.53
2018-04-07T12:35:58.528Z,24.54
2018-04-07T12:36:58.512Z,24.55
2018-04-07T12:37:58.495Z,24.65
2018-04-07T12:38:58.478Z,24.68
2018-04-07T12:39:58.468Z,24.78
2018-04-07T12:40:58.214Z,24.7
2018-04-07T12:41:58.458Z,24.8
2018-04-07T12:42:58.436Z,24.88
2018-04-07T12:43:58.179Z,24.86
2018-04-07T12:44:58.162Z,24.91
2018-04-07T12:45:58.402Z,24.86
2018-04-07T12:46:58.147Z,24.85
2018-04-07T12:47:58.389Z,24.85
2018-04-07T12:48:58.119Z,24.85
2018-04-07T12:49:58.205Z,24.88
2018-04-07T12:50:58.094Z,25.01
2018-04-07T12:51:58.331Z,24.95
2018-04-07T12:52:58.323Z,24.99
2018-04-07T12:53:58.318Z,25.07
2018-04-07T12:54:58.297Z,25.04
2018-04-07T12:55:58.288Z,25.08
2018-04-07T12:56:58.031Z,25.08
2018-04-07T12:57:58.266Z,25.11
2018-04-07T12:58:58.253Z,25.07
2018-04-07T12:59:57.745Z,24.99
2018-04-07T13:00:58.234Z,25.1
2018-04-07T13:01:58.227Z,25.13